createdAt,value
2022-12-18T00:02:30.788Z,-7.90
2022-12-18T00:05:32.425Z,-7.90
2022-12-18T00:08:34.662Z,-7.90
2022-12-18T00:11:36.257Z,-8.00
2022-12-18T00:14:37.900Z,-8.10
2022-12-18T00:17:43.266Z,-8.10
2022-12-18T00:20:44.900Z,-8.10
2022-12-18T00:23:48.448Z,-8.10
2022-12-18T00:26:50.041Z,-8.20
2022-12-18T00:29:51.648Z,-8.30
2022-12-18T00:32:53.281Z,-8.30
2022-12-18T00:35:54.895Z,-8.30
2022-12-18T00:38:57.883Z,-8.30
2022-12-18T00:42:19.513Z,-8.30
2022-12-18T00:45:21.227Z,-8.40
2022-12-18T00:48:22.960Z,-8.50
2022-12-18T00:51:25.486Z,-8.50
2022-12-18T00:54:27.142Z,-8.50
2022-12-18T00:57:28.754Z,-8.50
2022-12-18T01:00:30.406Z,-8.50
2022-12-18T01:03:32.062Z,-8.50
2022-12-18T01:06:33.794Z,-8.50
2022-12-18T01:09:36.179Z,-8.60
2022-12-18T01:12:37.838Z,-8.50
2022-12-18T01:15:39.814Z,-8.50
2022-12-18T01:18:41.614Z,-8.50
2022-12-18T01:21:43.200Z,-8.40
2022-12-18T01:24:44.804Z,-8.40
2022-12-18T01:27:46.433Z,-8.50
2022-12-18T01:30:48.046Z,-8.60
2022-12-18T01:33:51.091Z,-8.60
2022-12-18T01:36:53.097Z,-8.70
2022-12-18T01:39:55.562Z,-8.80
2022-12-18T01:42:57.188Z,-8.70
2022-12-18T01:46:00.779Z,-8.70
2022-12-18T01:49:02.866Z,-8.70
2022-12-18T01:52:04.510Z,-8.70
2022-12-18T01:55:07.720Z,-8.80
2022-12-18T01:58:09.357Z,-8.80
2022-12-18T02:04:23.713Z,-8.90
2022-12-18T02:07:36.860Z,-8.90
2022-12-18T02:10:52.812Z,-8.90
2022-12-18T02:13:57.734Z,-9.00
2022-12-18T02:17:05.907Z,-9.00
2022-12-18T02:20:23.752Z,-9.00
2022-12-18T02:23:56.088Z,-9.10
2022-12-18T02:27:01.760Z,-9.10
2022-12-18T02:30:05.939Z,-9.10
2022-12-18T02:33:09.538Z,-9.10
2022-12-18T02:36:13.805Z,-9.10
2022-12-18T02:39:16.768Z,-9.10
2022-12-18T02:42:19.565Z,-9.10
2022-12-18T02:45:21.245Z,-9.10
2022-12-18T02:48:29.035Z,-9.10
2022-12-18T02:51:43.218Z,-9.00
2022-12-18T02:54:53.390Z,-9.10
2022-12-18T02:58:13.570Z,-9.10
2022-12-18T03:01:25.242Z,-9.20
2022-12-18T03:04:35.288Z,-9.30
2022-12-18T03:07:47.380Z,-9.30
2022-12-18T03:11:08.559Z,-9.30
2022-12-18T03:14:12.326Z,-9.20
2022-12-18T03:17:18.535Z,-9.20
2022-12-18T03:20:25.733Z,-9.10
2022-12-18T03:23:32.106Z,-9.10
2022-12-18T03:26:35.630Z,-9.10
2022-12-18T03:29:41.774Z,-9.10
2022-12-18T03:33:20.398Z,-9.20
2022-12-18T03:36:22.432Z,-9.20
2022-12-18T03:39:25.432Z,-9.20
2022-12-18T03:42:40.206Z,-9.20
2022-12-18T03:45:54.856Z,-9.20
2022-12-18T03:49:17.044Z,-9.10
2022-12-18T03:52:29.839Z,-9.10
2022-12-18T03:55:35.509Z,-9.10
2022-12-18T03:58:39.699Z,-9.10
2022-12-18T04:01:48.473Z,-9.10
2022-12-18T04:04:54.387Z,-9.00
2022-12-18T04:07:57.227Z,-9.00
2022-12-18T04:10:58.969Z,-9.00
2022-12-18T04:14:03.583Z,-8.90
2022-12-18T04:17:09.107Z,-8.80
2022-12-18T04:20:11.312Z,-8.80
2022-12-18T04:23:12.878Z,-8.90
2022-12-18T04:26:14.539Z,-9.00
2022-12-18T04:29:16.191Z,-9.20
2022-12-18T04:32:17.803Z,-9.20
2022-12-18T04:35:19.573Z,-9.30
2022-12-18T04:38:21.174Z,-9.40
2022-12-18T04:41:22.878Z,-9.40
2022-12-18T04:44:24.471Z,-9.40
2022-12-18T04:47:26.222Z,-9.40
2022-12-18T04:50:28.308Z,-9.40
2022-12-18T04:53:29.940Z,-9.50
2022-12-18T04:56:32.762Z,-9.50
2022-12-18T04:59:34.435Z,-9.50
2022-12-18T05:02:36.240Z,-9.50
2022-12-18T05:05:37.978Z,-9.60
2022-12-18T05:08:39.669Z,-9.70
2022-12-18T05:11:41.660Z,-9.90
2022-12-18T05:14:43.333Z,-10.00
2022-12-18T05:17:45.537Z,-10.00
2022-12-18T05:20:47.131Z,-10.10
2022-12-18T05:23:48.780Z,-10.10
2022-12-18T05:26:51.136Z,-10.10
2022-12-18T05:29:52.774Z,-10.10
2022-12-18T05:32:54.577Z,-10.10
2022-12-18T05:36:01.896Z,-10.00
2022-12-18T05:39:04.141Z,-10.00
2022-12-18T05:42:06.078Z,-10.00
2022-12-18T05:45:08.401Z,-10.10
2022-12-18T05:48:13.226Z,-10.10
2022-12-18T05:51:17.549Z,-10.00
2022-12-18T05:54:19.124Z,-10.00
2022-12-18T05:57:20.892Z,-10.00
2022-12-18T06:00:22.559Z,-10.10
2022-12-18T06:03:29.277Z,-10.10
2022-12-18T06:06:33.917Z,-10.20
2022-12-18T06:09:35.504Z,-10.20
2022-12-18T06:12:37.117Z,-10.20
2022-12-18T06:15:39.139Z,-10.10
2022-12-18T06:18:40.741Z,-10.10
2022-12-18T06:21:42.498Z,-10.10
2022-12-18T06:24:44.042Z,-10.00
2022-12-18T06:27:48.933Z,-10.00
2022-12-18T06:30:50.779Z,-10.00
2022-12-18T06:33:52.548Z,-10.10
2022-12-18T06:36:54.126Z,-10.10
2022-12-18T06:39:57.394Z,-10.10
2022-12-18T06:42:59.071Z,-10.20
2022-12-18T06:46:01.918Z,-10.20
2022-12-18T06:49:03.616Z,-10.30
2022-12-18T06:52:05.197Z,-10.30
2022-12-18T06:55:11.546Z,-10.30
2022-12-18T06:58:13.196Z,-10.30
2022-12-18T07:01:15.288Z,-10.10
2022-12-18T07:04:17.078Z,-10.30
2022-12-18T07:07:19.096Z,-10.40
2022-12-18T07:10:20.683Z,-10.50
2022-12-18T07:13:22.470Z,-10.50
2022-12-18T07:16:25.546Z,-10.60
2022-12-18T07:19:27.632Z,-10.50
2022-12-18T07:22:29.256Z,-10.50
2022-12-18T07:25:30.850Z,-10.50
2022-12-18T07:28:33.699Z,-10.30
2022-12-18T07:31:35.340Z,-10.30
2022-12-18T07:34:38.151Z,-10.40
2022-12-18T07:37:39.746Z,-10.30
2022-12-18T07:40:41.302Z,-10.30
2022-12-18T07:43:43.704Z,-10.30
2022-12-18T07:46:45.650Z,-10.30
2022-12-18T07:49:47.269Z,-10.30
2022-12-18T07:52:48.896Z,-10.20
2022-12-18T07:56:25.522Z,-10.10
2022-12-18T07:59:16.892Z,-10.10
2022-12-18T08:02:18.684Z,-10.00
2022-12-18T08:05:21.692Z,-9.80
2022-12-18T08:08:23.349Z,-9.70
2022-12-18T08:11:26.735Z,-9.60
2022-12-18T08:14:28.410Z,-9.50
2022-12-18T08:17:30.040Z,-9.40
2022-12-18T08:20:31.677Z,-9.30
2022-12-18T08:23:42.074Z,-9.30
2022-12-18T08:27:00.891Z,-9.20
2022-12-18T08:30:07.086Z,-9.10
2022-12-18T08:33:09.085Z,-9.00
2022-12-18T08:36:11.494Z,-8.90
2022-12-18T08:39:13.174Z,-8.90
2022-12-18T08:42:33.426Z,-8.80
2022-12-18T08:45:35.325Z,-8.90
2022-12-18T08:48:36.961Z,-8.70
2022-12-18T08:51:39.005Z,-8.80
2022-12-18T08:54:40.705Z,-8.60
2022-12-18T08:57:42.350Z,-8.50
2022-12-18T09:00:44.152Z,-8.30
2022-12-18T09:03:45.868Z,-8.20
2022-12-18T09:06:47.752Z,-8.00
2022-12-18T09:09:49.417Z,-7.90
2022-12-18T09:12:51.017Z,-8.10
2022-12-18T09:15:54.354Z,-8.10
2022-12-18T09:19:00.467Z,-7.90
2022-12-18T09:22:02.126Z,-7.60
2022-12-18T09:25:03.988Z,-7.70
2022-12-18T09:28:16.276Z,-7.60
2022-12-18T09:31:19.962Z,-7.40
2022-12-18T09:34:24.573Z,-7.50
2022-12-18T09:37:26.158Z,-7.60
2022-12-18T09:40:35.165Z,-7.60
2022-12-18T09:43:43.987Z,-7.80
2022-12-18T09:47:03.277Z,-7.70
2022-12-18T09:50:30.864Z,-7.50
2022-12-18T09:53:38.336Z,-7.40
2022-12-18T09:56:44.073Z,-7.30
2022-12-18T09:59:53.910Z,-7.40
2022-12-18T10:03:04.357Z,-7.40
2022-12-18T10:06:22.265Z,-7.30
2022-12-18T10:09:38.177Z,-7.30
2022-12-18T10:12:52.039Z,-7.20
2022-12-18T10:16:09.744Z,-7.10
2022-12-18T10:19:25.043Z,-7.10
2022-12-18T10:22:35.894Z,-7.10
2022-12-18T10:26:04.037Z,-6.80
2022-12-18T10:29:13.146Z,-6.50
2022-12-18T10:32:21.116Z,-6.30
2022-12-18T10:35:27.865Z,-6.10
2022-12-18T10:38:32.568Z,-6.00
2022-12-18T10:41:34.380Z,-5.70
2022-12-18T10:44:35.952Z,-5.60
2022-12-18T10:47:42.590Z,-5.40
2022-12-18T10:51:10.441Z,-5.30
2022-12-18T10:54:37.247Z,-5.10
2022-12-18T10:57:42.322Z,-4.80
2022-12-18T11:00:43.925Z,-4.50
2022-12-18T11:03:48.393Z,-4.30
2022-12-18T11:07:05.123Z,-4.10
2022-12-18T11:10:16.535Z,-4.10
2022-12-18T11:13:21.586Z,-4.10
2022-12-18T11:16:24.709Z,-3.80
2022-12-18T11:19:42.485Z,-3.80
2022-12-18T11:22:44.240Z,-3.60
2022-12-18T11:26:02.553Z,-3.50
2022-12-18T11:29:16.438Z,-3.50
2022-12-18T11:32:35.009Z,-3.60
2022-12-18T11:35:59.743Z,-3.30
2022-12-18T11:39:35.255Z,-3.30
2022-12-18T11:42:43.663Z,-3.30
2022-12-18T11:46:00.411Z,-3.30
2022-12-18T11:49:13.970Z,-3.30
2022-12-18T11:52:29.425Z,-3.40
2022-12-18T11:55:49.786Z,-3.40
2022-12-18T11:58:58.218Z,-3.40
2022-12-18T12:02:20.699Z,-3.50
2022-12-18T12:05:39.244Z,-3.30
2022-12-18T12:08:46.504Z,-3.10
2022-12-18T12:12:03.189Z,-3.00
2022-12-18T12:15:30.920Z,-3.10
2022-12-18T12:19:16.581Z,-3.00
2022-12-18T12:22:45.777Z,-3.10
2022-12-18T12:25:54.419Z,-3.20
2022-12-18T12:29:20.956Z,-3.30
2022-12-18T12:32:44.608Z,-3.30
2022-12-18T12:36:01.083Z,-3.20
2022-12-18T12:39:09.103Z,-3.10
2022-12-18T12:42:45.836Z,-3.30
2022-12-18T12:45:53.240Z,-3.40
2022-12-18T12:49:02.041Z,-3.30
2022-12-18T12:52:13.290Z,-3.40
2022-12-18T12:55:29.658Z,-3.40
2022-12-18T12:58:58.634Z,-3.30
2022-12-18T13:02:22.831Z,-3.20
2022-12-18T13:05:44.506Z,-3.00
2022-12-18T13:08:56.000Z,-3.00
2022-12-18T13:12:23.829Z,-3.20
2022-12-18T13:15:39.878Z,-3.40
2022-12-18T13:18:56.230Z,-3.50
2022-12-18T13:21:58.089Z,-3.50
2022-12-18T13:25:00.781Z,-3.60
2022-12-18T13:28:37.362Z,-3.40
2022-12-18T13:31:42.078Z,-3.20
2022-12-18T13:34:44.323Z,-3.10
2022-12-18T13:37:54.183Z,-3.10
2022-12-18T13:40:58.046Z,-2.90
2022-12-18T13:44:21.610Z,-2.80
2022-12-18T13:47:33.132Z,-2.60
2022-12-18T13:50:36.791Z,-2.40
2022-12-18T13:53:45.482Z,-2.40
2022-12-18T13:56:49.013Z,-2.40
2022-12-18T13:59:50.834Z,-2.30
2022-12-18T14:02:57.285Z,-2.40
2022-12-18T14:06:08.588Z,-2.60
2022-12-18T14:09:20.325Z,-2.70
2022-12-18T14:12:48.274Z,-2.80
2022-12-18T14:15:51.041Z,-2.70
2022-12-18T14:18:59.826Z,-2.60
2022-12-18T14:22:06.063Z,-2.60
2022-12-18T14:25:13.755Z,-2.60
2022-12-18T14:28:16.422Z,-2.60
2022-12-18T14:31:26.539Z,-2.50
2022-12-18T14:34:28.197Z,-2.60
2022-12-18T14:37:29.898Z,-2.70
2022-12-18T14:40:31.830Z,-2.60
2022-12-18T14:43:36.125Z,-2.70
2022-12-18T14:46:43.579Z,-2.80
2022-12-18T14:49:45.442Z,-2.80
2022-12-18T14:52:47.164Z,-2.80
2022-12-18T14:55:49.749Z,-2.80
2022-12-18T14:59:02.684Z,-2.90
2022-12-18T15:02:22.183Z,-2.90
2022-12-18T15:05:29.845Z,-2.90
2022-12-18T15:08:36.674Z,-3.00
2022-12-18T15:11:41.505Z,-2.90
2022-12-18T15:14:43.297Z,-2.90
2022-12-18T15:17:45.034Z,-3.00
2022-12-18T15:20:50.970Z,-3.00
2022-12-18T15:23:53.409Z,-3.00
2022-12-18T15:26:55.214Z,-3.10
2022-12-18T15:30:08.951Z,-3.10
2022-12-18T15:33:27.095Z,-3.10
2022-12-18T15:36:28.753Z,-3.10
2022-12-18T15:39:30.400Z,-3.00
2022-12-18T15:42:50.549Z,-3.10
2022-12-18T15:45:52.603Z,-3.10
2022-12-18T15:49:04.529Z,-3.00
2022-12-18T15:52:06.860Z,-3.00
2022-12-18T15:55:39.228Z,-3.10
2022-12-18T15:58:42.014Z,-3.30
2022-12-18T16:01:46.924Z,-3.40
2022-12-18T16:04:48.815Z,-3.40
2022-12-18T16:07:50.387Z,-3.50
2022-12-18T16:10:51.990Z,-3.60
2022-12-18T16:13:53.582Z,-3.60
2022-12-18T16:17:01.577Z,-3.70
2022-12-18T16:20:03.354Z,-3.70
2022-12-18T16:23:05.191Z,-3.70
2022-12-18T16:26:06.756Z,-3.80
2022-12-18T16:29:08.643Z,-3.80
2022-12-18T16:32:17.691Z,-3.80
2022-12-18T16:35:19.446Z,-3.80
2022-12-18T16:38:21.102Z,-3.90
2022-12-18T16:41:32.332Z,-3.80
2022-12-18T16:44:35.065Z,-3.90
2022-12-18T16:47:37.723Z,-3.90
2022-12-18T16:50:39.378Z,-3.90
2022-12-18T16:53:42.622Z,-3.80
2022-12-18T16:56:45.264Z,-3.70
2022-12-18T16:59:47.203Z,-3.70
2022-12-18T17:02:48.913Z,-3.60
2022-12-18T17:05:53.229Z,-3.60
2022-12-18T17:08:59.194Z,-3.60
2022-12-18T17:12:04.280Z,-3.60
2022-12-18T17:15:06.945Z,-3.60
2022-12-18T17:18:08.503Z,-3.50
2022-12-18T17:21:12.136Z,-3.60
2022-12-18T17:24:13.870Z,-3.50
2022-12-18T17:27:15.647Z,-3.50
2022-12-18T17:30:17.342Z,-3.50
2022-12-18T17:33:19.198Z,-3.50
2022-12-18T17:36:23.997Z,-3.60
2022-12-18T17:39:25.738Z,-3.70
2022-12-18T17:42:27.349Z,-3.70
2022-12-18T17:45:28.993Z,-3.60
2022-12-18T17:48:30.923Z,-3.50
2022-12-18T17:51:32.578Z,-3.40
2022-12-18T17:54:35.372Z,-3.30
2022-12-18T17:57:37.055Z,-3.40
2022-12-18T18:00:39.481Z,-3.50
2022-12-18T18:03:42.154Z,-3.50
2022-12-18T18:06:44.420Z,-3.50
2022-12-18T18:09:46.211Z,-3.50
2022-12-18T18:13:06.584Z,-3.70
2022-12-18T18:16:09.586Z,-3.70
2022-12-18T18:19:20.705Z,-3.60
2022-12-18T18:22:23.052Z,-3.60
2022-12-18T18:25:26.077Z,-3.60
2022-12-18T18:28:28.277Z,-3.60
2022-12-18T18:31:31.560Z,-3.60
2022-12-18T18:34:33.381Z,-3.50
2022-12-18T18:37:35.086Z,-3.50
2022-12-18T18:40:36.719Z,-3.50
2022-12-18T18:43:38.589Z,-3.50
2022-12-18T18:46:40.485Z,-3.50
2022-12-18T18:49:42.108Z,-3.60
2022-12-18T18:52:43.772Z,-3.80
2022-12-18T18:55:51.745Z,-3.70
2022-12-18T18:59:05.827Z,-3.60
2022-12-18T19:02:12.064Z,-3.70
2022-12-18T19:05:13.992Z,-3.60
2022-12-18T19:08:15.642Z,-3.50
2022-12-18T19:11:36.717Z,-3.50
2022-12-18T19:14:38.485Z,-3.60
2022-12-18T19:17:40.114Z,-3.50
2022-12-18T19:20:42.038Z,-3.50
2022-12-18T19:23:44.780Z,-3.50
2022-12-18T19:26:46.483Z,-3.50
2022-12-18T19:29:49.295Z,-3.50
2022-12-18T19:32:51.088Z,-3.40
2022-12-18T19:35:53.022Z,-3.30
2022-12-18T19:38:57.735Z,-3.30
2022-12-18T19:41:59.382Z,-3.20
2022-12-18T19:45:01.066Z,-3.30
2022-12-18T19:48:04.605Z,-3.20
2022-12-18T19:51:20.923Z,-3.30
2022-12-18T19:54:22.623Z,-3.30
2022-12-18T19:57:24.256Z,-3.20
2022-12-18T20:00:25.869Z,-3.30
2022-12-18T20:03:32.307Z,-3.30
2022-12-18T20:06:50.035Z,-3.20
2022-12-18T20:09:59.585Z,-3.20
2022-12-18T20:13:06.409Z,-3.20
2022-12-18T20:16:08.273Z,-3.20
2022-12-18T20:19:11.960Z,-3.20
2022-12-18T20:22:13.963Z,-3.30
2022-12-18T20:25:16.084Z,-3.40
2022-12-18T20:28:17.822Z,-3.40
2022-12-18T20:31:19.967Z,-3.40
2022-12-18T20:34:22.029Z,-3.40
2022-12-18T20:37:24.400Z,-3.40
2022-12-18T20:40:26.581Z,-3.50
2022-12-18T20:43:31.011Z,-3.60
2022-12-18T20:46:32.583Z,-3.60
2022-12-18T20:49:34.233Z,-3.60
2022-12-18T20:52:35.818Z,-3.50
2022-12-18T20:55:42.901Z,-3.30
2022-12-18T20:58:45.026Z,-3.20
2022-12-18T21:01:48.856Z,-3.40
2022-12-18T21:04:51.017Z,-3.20
2022-12-18T21:07:52.606Z,-3.20
2022-12-18T21:10:54.340Z,-3.00
2022-12-18T21:13:58.670Z,-3.00
2022-12-18T21:17:01.752Z,-3.00
2022-12-18T21:20:03.764Z,-3.10
2022-12-18T21:23:15.610Z,-3.20
2022-12-18T21:26:24.312Z,-3.20
2022-12-18T21:29:26.603Z,-3.20
2022-12-18T21:32:28.491Z,-3.10
2022-12-18T21:35:33.648Z,-3.00
2022-12-18T21:38:37.139Z,-3.00
2022-12-18T21:41:57.637Z,-3.20
2022-12-18T21:44:59.500Z,-3.10
2022-12-18T21:48:01.248Z,-3.00
2022-12-18T21:51:02.892Z,-3.00
2022-12-18T21:54:06.742Z,-2.90
2022-12-18T21:57:08.577Z,-2.90
2022-12-18T22:00:19.298Z,-2.80
2022-12-18T22:03:21.675Z,-2.70
2022-12-18T22:06:23.374Z,-2.70
2022-12-18T22:09:25.315Z,-2.70
2022-12-18T22:12:43.138Z,-2.60
2022-12-18T22:15:45.524Z,-2.60
2022-12-18T22:18:47.225Z,-2.70
2022-12-18T22:21:49.285Z,-2.80
2022-12-18T22:24:50.931Z,-2.70
2022-12-18T22:28:11.066Z,-2.60
2022-12-18T22:31:12.800Z,-2.60
2022-12-18T22:34:14.665Z,-2.80
2022-12-18T22:37:16.308Z,-2.80
2022-12-18T22:40:24.100Z,-2.70
2022-12-18T22:43:27.073Z,-2.70
2022-12-18T22:46:32.788Z,-2.60
2022-12-18T22:49:35.668Z,-2.50
2022-12-18T22:52:37.510Z,-2.40
2022-12-18T22:55:43.693Z,-2.40
2022-12-18T22:58:49.468Z,-2.40
2022-12-18T23:01:58.393Z,-2.50
2022-12-18T23:05:00.889Z,-2.60
2022-12-18T23:08:02.591Z,-2.60
2022-12-18T23:11:05.582Z,-2.60
2022-12-18T23:14:07.202Z,-2.60
2022-12-18T23:17:08.808Z,-2.60
2022-12-18T23:20:10.830Z,-2.50
2022-12-18T23:23:12.579Z,-2.60
2022-12-18T23:26:19.997Z,-2.60
2022-12-18T23:29:21.658Z,-2.50
2022-12-18T23:32:23.362Z,-2.50
2022-12-18T23:35:25.170Z,-2.50
2022-12-18T23:38:27.321Z,-2.40
2022-12-18T23:41:30.696Z,-2.30
2022-12-18T23:44:32.320Z,-2.40
2022-12-18T23:47:34.073Z,-2.30
2022-12-18T23:50:35.919Z,-2.30
2022-12-18T23:53:37.552Z,-2.20
2022-12-18T23:56:39.238Z,-2.10
2022-12-18T23:59:40.935Z,-2.10
